Time;durP1;ratioP1;P1;durP2;ratioP2;P2;SDS_P1;SDS_P2;PMS_P1;PMS_P2;Temp;Humidity;BMP_temperature;BMP_pressure;BME280_temperature;BME280_humidity;BME280_pressure;Samples;Min_cycle;Max_cycle;Signal;HPM_P1;HPM_P2
2022/01/01 15:09:50;;;;;;;20.23;9.80;;;12.40;99.90;;;;;;5061425;28;20410;-74
2022/01/01 15:12:19;;;;;;;17.30;10.63;;;12.20;99.90;;;;;;5007231;28;60582;-74
2022/01/01 15:14:45;;;;;;;22.13;10.70;;;12.20;99.90;;;;;;5018181;28;20050;-75
2022/01/01 15:17:40;;;;;;;22.45;10.20;;;12.20;99.90;;;;;;5009758;28;20046;-75
2022/01/01 15:22:10;;;;;;;17.00;9.25;;;12.30;99.90;;;;;;5011135;28;20121;-75
2022/01/01 15:24:56;;;;;;;20.63;11.05;;;12.30;99.90;;;;;;5009194;28;20056;-75
2022/01/01 15:27:24;;;;;;;17.92;10.18;;;12.30;99.90;;;;;;5006296;28;20057;-75
2022/01/01 15:35:40;;;;;;;21.30;10.63;;;12.20;99.90;;;;;;4985982;28;20474;-75
2022/01/01 15:40:43;;;;;;;19.08;10.13;;;12.10;99.90;;;;;;5003927;28;20558;-75
2022/01/01 15:43:09;;;;;;;15.27;9.05;;;12.20;99.90;;;;;;5005813;28;20381;-74
2022/01/01 15:45:38;;;;;;;14.82;9.07;;;12.20;99.90;;;;;;4998802;28;20543;-74
2022/01/01 15:48:05;;;;;;;18.83;9.23;;;12.20;99.90;;;;;;5016690;28;20772;-74
2022/01/01 15:50:32;;;;;;;15.23;9.23;;;12.30;99.90;;;;;;5000972;28;20034;-74
2022/01/01 15:52:57;;;;;;;13.95;9.00;;;12.20;99.90;;;;;;5005439;28;20472;-74
2022/01/01 15:55:23;;;;;;;15.52;8.45;;;12.20;99.90;;;;;;5000879;28;20076;-74
2022/01/01 15:57:54;;;;;;;14.45;9.02;;;12.20;99.90;;;;;;5002246;28;20145;-75
2022/01/01 16:00:22;;;;;;;19.35;8.40;;;12.30;99.90;;;;;;5001462;28;20124;-75
2022/01/01 16:03:11;;;;;;;13.73;8.38;;;12.30;99.90;;;;;;5002185;28;20620;-75
2022/01/01 16:05:42;;;;;;;17.45;8.05;;;12.30;99.90;;;;;;5003623;28;20428;-74
2022/01/01 16:08:13;;;;;;;15.15;8.95;;;12.30;99.90;;;;;;5000970;28;20539;-75
2022/01/01 16:10:42;;;;;;;13.38;7.85;;;12.30;99.90;;;;;;4999877;28;20443;-74
2022/01/01 16:13:10;;;;;;;14.20;8.48;;;12.30;99.90;;;;;;5001488;28;20448;-74
2022/01/01 16:15:37;;;;;;;13.95;8.15;;;12.30;99.90;;;;;;5003137;28;20440;-74
2022/01/01 16:18:11;;;;;;;13.25;7.90;;;12.30;99.90;;;;;;4987053;28;20042;-74
2022/01/01 16:20:41;;;;;;;12.57;7.47;;;12.30;99.90;;;;;;4994735;28;20377;-74
2022/01/01 16:23:10;;;;;;;16.52;7.78;;;12.40;99.90;;;;;;4988180;28;20514;-75
2022/01/01 16:25:36;;;;;;;14.32;7.72;;;12.30;99.90;;;;;;4986002;28;20373;-75
2022/01/01 16:28:02;;;;;;;15.55;8.32;;;12.30;99.90;;;;;;4987957;28;20044;-74
2022/01/01 16:30:44;;;;;;;11.52;7.85;;;12.30;99.90;;;;;;5003886;28;20034;-74
2022/01/01 16:33:17;;;;;;;9.57;7.15;;;12.30;99.90;;;;;;4985812;28;20369;-74
2022/01/01 16:35:47;;;;;;;10.65;6.70;;;12.30;99.90;;;;;;4987768;28;20378;-74
2022/01/01 16:38:13;;;;;;;12.65;7.00;;;12.40;99.90;;;;;;4992080;28;20054;-74
2022/01/01 16:40:45;;;;;;;12.38;7.00;;;12.40;99.90;;;;;;4988918;28;20114;-75
2022/01/01 16:43:15;;;;;;;10.82;7.63;;;12.40;99.90;;;;;;4992201;28;20404;-75
2022/01/01 16:45:54;;;;;;;12.00;7.47;;;12.40;99.90;;;;;;4974911;28;20046;-74
2022/01/01 16:48:26;;;;;;;12.75;7.20;;;12.40;99.90;;;;;;4985255;28;20397;-74
2022/01/01 16:51:00;;;;;;;14.00;7.25;;;12.40;99.90;;;;;;4983385;28;20479;-74
2022/01/01 16:53:27;;;;;;;11.13;7.10;;;12.40;99.90;;;;;;4969694;28;20034;-75
2022/01/01 16:55:54;;;;;;;11.88;6.90;;;12.50;99.90;;;;;;4986059;28;20401;-73
2022/01/01 16:58:23;;;;;;;11.98;6.90;;;12.50;99.90;;;;;;4991611;28;20473;-73
2022/01/01 17:00:54;;;;;;;13.30;7.35;;;12.50;99.90;;;;;;5001607;28;20035;-74
2022/01/01 17:03:38;;;;;;;12.85;7.60;;;12.50;99.90;;;;;;4989277;28;20109;-74
2022/01/01 17:06:04;;;;;;;12.88;7.72;;;12.50;99.90;;;;;;4989248;28;20038;-74
2022/01/01 17:08:30;;;;;;;14.23;7.05;;;12.40;99.90;;;;;;5004006;28;20134;-74
2022/01/01 17:10:56;;;;;;;9.70;6.65;;;12.50;99.90;;;;;;4993941;28;20104;-75
2022/01/01 17:13:21;;;;;;;11.80;6.80;;;12.50;99.90;;;;;;4971854;28;20156;-74
2022/01/01 17:15:57;;;;;;;11.98;7.38;;;12.50;99.90;;;;;;4992478;28;20489;-74
2022/01/01 17:18:35;;;;;;;12.13;7.07;;;12.40;99.90;;;;;;4990102;28;20046;-74
2022/01/01 17:21:03;;;;;;;12.85;7.43;;;12.40;99.90;;;;;;4993171;28;20125;-74
2022/01/01 17:23:48;;;;;;;9.52;7.20;;;12.40;99.90;;;;;;5007705;28;20042;-73
2022/01/01 17:26:21;;;;;;;10.02;6.35;;;12.40;99.90;;;;;;4991552;28;20120;-73
2022/01/01 17:28:48;;;;;;;9.85;7.05;;;12.40;99.90;;;;;;4977640;28;20065;-73
2022/01/01 17:31:16;;;;;;;12.98;6.88;;;12.40;99.90;;;;;;4991616;28;20042;-73
2022/01/01 17:33:59;;;;;;;9.60;6.70;;;12.40;99.90;;;;;;4976049;28;20130;-73
2022/01/01 17:42:17;;;;;;;10.93;6.78;;;12.40;99.90;;;;;;4996029;28;20054;-74
2022/01/01 17:44:44;;;;;;;11.30;6.70;;;12.40;99.90;;;;;;4992798;28;20042;-73
2022/01/01 17:47:18;;;;;;;10.30;6.70;;;12.40;99.90;;;;;;4985499;28;20038;-73
2022/01/01 17:49:46;;;;;;;12.50;6.53;;;12.50;99.90;;;;;;4989636;28;20050;-74
2022/01/01 17:52:16;;;;;;;10.35;6.57;;;12.50;99.90;;;;;;4990478;28;20038;-74
2022/01/01 17:54:43;;;;;;;9.60;6.20;;;12.50;99.90;;;;;;4990636;28;20448;-74
2022/01/01 17:57:10;;;;;;;9.50;6.80;;;12.50;99.90;;;;;;5006420;28;20401;-74
2022/01/01 17:59:40;;;;;;;12.35;6.18;;;12.50;99.90;;;;;;4991705;28;20097;-74
2022/01/01 18:02:06;;;;;;;11.25;6.78;;;12.50;99.90;;;;;;4990924;28;20038;-74
2022/01/01 18:04:32;;;;;;;10.60;6.30;;;12.50;99.90;;;;;;4989887;28;20057;-73
2022/01/01 18:07:02;;;;;;;11.32;6.32;;;12.50;99.90;;;;;;4991475;28;20549;-73
2022/01/01 18:09:36;;;;;;;8.65;5.97;;;12.50;99.90;;;;;;4989572;28;20555;-74
2022/01/01 18:12:03;;;;;;;8.38;5.85;;;12.50;99.90;;;;;;4990663;28;20081;-74
2022/01/01 18:14:39;;;;;;;12.00;6.10;;;12.50;99.90;;;;;;4989589;28;20100;-74
2022/01/01 18:17:06;;;;;;;12.40;6.57;;;12.40;99.90;;;;;;4991246;28;20030;-74
2022/01/01 18:19:33;;;;;;;11.75;6.13;;;12.30;99.90;;;;;;4973911;28;20819;-74
2022/01/01 18:22:02;;;;;;;11.05;5.72;;;12.30;99.90;;;;;;4990943;28;20404;-74
2022/01/01 18:24:43;;;;;;;9.27;5.07;;;12.30;99.90;;;;;;4990621;28;20046;-74
2022/01/01 18:27:32;;;;;;;7.45;5.60;;;12.30;99.90;;;;;;4990961;28;20038;-74
2022/01/01 18:29:58;;;;;;;8.68;5.20;;;12.30;99.90;;;;;;5013093;28;20045;-74
2022/01/01 18:32:24;;;;;;;7.60;5.22;;;12.30;99.90;;;;;;4991995;28;20440;-74
2022/01/01 18:34:51;;;;;;;9.15;5.72;;;12.30;99.90;;;;;;4988829;28;20046;-74
2022/01/01 18:37:18;;;;;;;8.00;5.18;;;12.40;99.90;;;;;;4990417;28;20581;-74
2022/01/01 18:39:45;;;;;;;9.82;5.50;;;12.30;99.90;;;;;;4991146;28;20444;-74
2022/01/01 18:42:13;;;;;;;11.00;5.13;;;12.40;99.90;;;;;;4989277;28;20046;-74
2022/01/01 18:44:40;;;;;;;8.50;5.28;;;12.40;99.90;;;;;;4992078;28;20447;-74
2022/01/01 18:47:07;;;;;;;7.75;5.45;;;12.30;99.90;;;;;;4990728;28;20369;-74
2022/01/01 18:49:34;;;;;;;10.45;5.30;;;12.40;99.90;;;;;;4989999;28;20120;-74
2022/01/01 18:52:02;;;;;;;9.50;5.18;;;12.40;99.90;;;;;;4989796;28;20104;-74
2022/01/01 18:54:33;;;;;;;9.27;5.22;;;12.40;99.90;;;;;;4991483;28;20042;-74
2022/01/01 18:57:05;;;;;;;8.82;5.35;;;12.40;99.90;;;;;;5006812;28;20044;-74
2022/01/01 18:59:40;;;;;;;11.27;5.70;;;12.40;99.90;;;;;;4989612;28;20124;-74
2022/01/01 19:02:07;;;;;;;8.65;5.47;;;12.40;99.90;;;;;;4984982;28;20066;-74
2022/01/01 19:04:43;;;;;;;9.30;5.28;;;12.40;99.90;;;;;;4987289;28;20046;-73
2022/01/01 19:07:16;;;;;;;10.35;5.32;;;12.30;99.90;;;;;;4990402;28;20031;-73
2022/01/01 19:09:48;;;;;;;9.50;5.38;;;12.30;99.90;;;;;;4984800;28;20069;-73
2022/01/01 19:12:23;;;;;;;10.50;5.35;;;12.30;99.90;;;;;;4990694;28;20129;-73
2022/01/01 19:15:00;;;;;;;9.18;5.28;;;12.30;99.90;;;;;;4987809;28;20035;-75
2022/01/01 19:17:28;;;;;;;8.00;5.40;;;12.30;99.90;;;;;;4974473;28;20049;-74
2022/01/01 19:19:55;;;;;;;10.70;5.25;;;12.30;99.90;;;;;;4989377;28;20038;-74
2022/01/01 19:22:22;;;;;;;8.73;5.55;;;12.40;99.90;;;;;;4987699;28;20045;-74
2022/01/01 19:24:49;;;;;;;9.27;5.80;;;12.40;99.90;;;;;;4990180;28;20046;-74
2022/01/01 19:27:22;;;;;;;9.38;5.60;;;12.40;99.90;;;;;;4989154;28;20137;-74
2022/01/01 19:29:50;;;;;;;9.18;5.78;;;12.40;99.90;;;;;;4989520;28;20231;-74
2022/01/01 19:32:19;;;;;;;8.10;5.70;;;12.50;99.90;;;;;;4983315;28;20122;-74
2022/01/01 19:34:51;;;;;;;7.30;4.65;;;12.60;99.90;;;;;;5006080;28;20046;-74
2022/01/01 19:37:17;;;;;;;10.05;5.07;;;12.50;99.90;;;;;;4986623;28;20038;-74
2022/01/01 19:39:51;;;;;;;9.30;5.10;;;12.50;99.90;;;;;;4989905;28;20069;-74
2022/01/01 19:42:30;;;;;;;7.93;5.38;;;12.60;99.90;;;;;;4989859;28;20042;-74
2022/01/01 19:45:00;;;;;;;11.45;5.88;;;12.60;99.90;;;;;;5005986;28;20042;-73
2022/01/01 19:47:29;;;;;;;7.93;5.53;;;12.60;99.90;;;;;;4981008;28;20050;-74
2022/01/01 19:50:12;;;;;;;8.98;5.35;;;12.60;99.90;;;;;;4989554;28;20046;-74
2022/01/01 19:52:39;;;;;;;8.70;5.32;;;12.60;99.90;;;;;;4988557;28;20035;-74
2022/01/01 19:55:06;;;;;;;9.00;5.18;;;12.70;99.90;;;;;;4990503;28;20069;-74
2022/01/01 19:57:34;;;;;;;9.45;5.18;;;12.70;99.90;;;;;;4993684;28;20038;-73
2022/01/01 19:59:59;;;;;;;8.35;4.82;;;12.60;99.90;;;;;;4992121;28;20045;-74
2022/01/01 20:02:25;;;;;;;6.32;4.60;;;12.70;99.90;;;;;;5009945;28;20396;-73
2022/01/01 20:04:50;;;;;;;7.35;5.63;;;12.70;99.90;;;;;;5008505;28;20386;-73
2022/01/01 20:07:16;;;;;;;7.85;4.97;;;12.70;99.90;;;;;;5010064;28;20513;-74
2022/01/01 20:09:42;;;;;;;9.73;5.00;;;12.70;99.90;;;;;;4993083;28;20547;-73
2022/01/01 20:12:08;;;;;;;8.23;5.85;;;12.70;99.90;;;;;;4976981;28;20034;-74
2022/01/01 20:14:34;;;;;;;7.78;5.32;;;12.70;99.90;;;;;;4992330;28;20035;-73
2022/01/01 20:17:02;;;;;;;10.05;5.07;;;12.60;99.90;;;;;;5007697;28;20061;-74
2022/01/01 20:19:30;;;;;;;9.18;5.00;;;12.60;99.90;;;;;;4990775;28;20088;-74
2022/01/01 20:21:57;;;;;;;10.55;6.03;;;12.60;99.90;;;;;;4991190;28;20042;-74
2022/01/01 20:24:22;;;;;;;6.75;5.28;;;12.60;99.90;;;;;;4992814;28;20112;-74
2022/01/01 20:26:48;;;;;;;8.93;5.78;;;12.60;99.90;;;;;;4993513;28;20083;-74
2022/01/01 20:29:14;;;;;;;8.40;5.63;;;12.50;99.90;;;;;;4975357;28;20045;-74
2022/01/01 20:31:40;;;;;;;7.20;5.60;;;12.60;99.90;;;;;;4993671;28;20121;-74
2022/01/01 20:34:05;;;;;;;10.68;5.25;;;12.50;99.90;;;;;;4991575;28;20065;-74
2022/01/01 20:36:31;;;;;;;11.23;5.75;;;12.50;99.90;;;;;;4990584;28;20060;-74
2022/01/01 20:38:56;;;;;;;9.27;5.82;;;12.40;99.90;;;;;;4994007;28;20038;-74
2022/01/01 20:41:22;;;;;;;11.25;6.10;;;12.40;99.90;;;;;;4993036;28;20038;-74
2022/01/01 20:43:48;;;;;;;10.02;6.53;;;12.40;99.90;;;;;;4990702;28;20042;-75
2022/01/01 20:46:14;;;;;;;9.32;6.35;;;12.40;99.90;;;;;;4990472;28;20048;-75
2022/01/01 20:48:39;;;;;;;11.50;6.78;;;12.30;99.90;;;;;;4984507;28;20189;-75
2022/01/01 20:51:05;;;;;;;9.13;7.22;;;12.40;99.90;;;;;;4992504;28;20038;-75
2022/01/01 20:53:31;;;;;;;10.82;6.93;;;12.30;99.90;;;;;;4992794;28;20042;-74
2022/01/01 20:55:57;;;;;;;10.85;6.30;;;12.30;99.90;;;;;;4992540;28;20038;-74
2022/01/01 20:58:22;;;;;;;11.13;6.90;;;12.30;99.90;;;;;;4991663;28;20093;-75
2022/01/01 21:00:52;;;;;;;9.35;6.28;;;12.30;99.90;;;;;;4991565;28;20101;-75
2022/01/01 21:03:23;;;;;;;9.10;5.85;;;12.30;99.90;;;;;;4991153;28;20568;-74
2022/01/01 21:05:56;;;;;;;8.30;5.95;;;12.30;99.90;;;;;;4991483;28;20031;-74
2022/01/01 21:08:25;;;;;;;9.63;5.75;;;12.40;99.90;;;;;;4992269;28;20057;-74
2022/01/01 21:10:54;;;;;;;10.45;6.18;;;12.30;99.90;;;;;;4990598;28;20109;-74
2022/01/01 21:13:19;;;;;;;12.45;6.60;;;12.30;99.90;;;;;;4992074;28;20056;-74
2022/01/01 21:15:45;;;;;;;10.02;6.47;;;12.40;99.90;;;;;;4992508;28;20042;-74
2022/01/01 21:18:10;;;;;;;10.77;6.47;;;12.30;99.90;;;;;;4991592;28;20042;-74
2022/01/01 21:20:37;;;;;;;10.38;6.63;;;12.40;99.90;;;;;;4990981;28;20089;-74
2022/01/01 21:23:05;;;;;;;8.38;6.15;;;12.40;99.90;;;;;;4992974;28;20089;-75
2022/01/01 21:25:32;;;;;;;7.55;5.53;;;12.40;99.90;;;;;;4993154;28;20077;-75
2022/01/01 21:27:58;;;;;;;10.20;6.20;;;12.40;99.90;;;;;;4993256;28;20042;-75
2022/01/01 21:30:24;;;;;;;8.32;5.82;;;12.40;99.90;;;;;;4989987;28;20041;-75
2022/01/01 21:32:50;;;;;;;8.48;6.10;;;12.40;99.90;;;;;;4976281;28;20045;-74
2022/01/01 21:35:16;;;;;;;10.63;5.95;;;12.40;99.90;;;;;;4993343;28;20125;-75
2022/01/01 21:37:42;;;;;;;7.90;6.50;;;12.50;99.90;;;;;;4990968;28;20053;-75
2022/01/01 21:40:09;;;;;;;12.23;6.75;;;12.40;99.90;;;;;;4991261;28;20038;-75
2022/01/01 21:42:36;;;;;;;10.77;7.40;;;12.40;99.90;;;;;;4991106;28;20050;-74
2022/01/01 21:45:04;;;;;;;9.88;7.30;;;12.40;99.90;;;;;;4991065;28;20103;-74
2022/01/01 21:47:30;;;;;;;12.35;6.72;;;12.40;99.90;;;;;;5007957;28;20481;-74
2022/01/01 21:49:56;;;;;;;13.32;6.22;;;12.40;99.90;;;;;;4990523;28;20161;-74
2022/01/01 21:52:22;;;;;;;10.00;5.90;;;12.30;99.90;;;;;;4987727;28;20149;-74
2022/01/01 21:54:47;;;;;;;10.43;5.82;;;12.40;99.90;;;;;;4990822;28;20057;-74
2022/01/01 21:57:13;;;;;;;9.90;5.43;;;12.30;99.90;;;;;;4992139;28;20045;-74
2022/01/01 21:59:39;;;;;;;11.10;6.20;;;12.30;99.90;;;;;;5004681;28;20054;-74
2022/01/01 22:02:05;;;;;;;7.85;5.85;;;12.30;99.90;;;;;;4991165;28;20038;-74
2022/01/01 22:04:30;;;;;;;8.52;5.95;;;12.20;99.90;;;;;;4986789;28;20046;-74
2022/01/01 22:06:56;;;;;;;9.52;6.05;;;12.20;99.90;;;;;;4991161;28;20053;-74
2022/01/01 22:09:23;;;;;;;9.93;6.70;;;12.20;99.90;;;;;;5006908;28;20057;-74
2022/01/01 22:11:49;;;;;;;8.82;6.30;;;12.10;99.90;;;;;;4990791;28;20069;-74
2022/01/01 22:14:14;;;;;;;7.97;6.05;;;12.10;99.90;;;;;;4990770;28;20035;-74
2022/01/01 22:16:40;;;;;;;10.68;6.35;;;12.10;99.90;;;;;;4992070;28;20042;-73
2022/01/01 22:19:06;;;;;;;11.38;5.28;;;12.10;99.90;;;;;;4991886;28;20046;-73
2022/01/01 22:21:32;;;;;;;8.05;5.68;;;12.10;99.90;;;;;;4989126;28;20046;-73
2022/01/01 22:23:57;;;;;;;9.95;5.93;;;12.10;99.90;;;;;;4991059;28;20125;-73
2022/01/01 22:26:23;;;;;;;9.75;5.60;;;12.10;99.90;;;;;;4992102;28;20038;-73
2022/01/01 22:28:49;;;;;;;7.65;5.88;;;12.00;99.90;;;;;;5006366;28;20053;-73
2022/01/01 22:31:14;;;;;;;9.48;5.70;;;12.00;99.90;;;;;;4991782;28;20042;-73
2022/01/01 22:33:40;;;;;;;10.07;5.57;;;12.00;99.90;;;;;;4990509;28;20047;-73
2022/01/01 22:36:07;;;;;;;10.02;5.80;;;12.00;99.90;;;;;;4991148;28;20480;-73
2022/01/01 22:38:33;;;;;;;9.68;5.80;;;12.00;99.90;;;;;;5006779;28;20082;-73
2022/01/01 22:41:05;;;;;;;8.25;6.15;;;12.00;99.90;;;;;;4988926;28;20062;-73
2022/01/01 22:43:31;;;;;;;8.75;6.15;;;12.00;99.90;;;;;;4990212;28;20050;-73
2022/01/01 22:45:56;;;;;;;8.48;5.93;;;12.00;99.90;;;;;;4990359;28;20042;-73
2022/01/01 22:48:22;;;;;;;8.82;5.57;;;12.00;99.90;;;;;;4989978;28;20054;-73
2022/01/01 22:50:48;;;;;;;10.38;6.53;;;12.00;99.90;;;;;;4990793;28;20046;-73
2022/01/01 22:53:14;;;;;;;7.32;5.75;;;11.90;99.90;;;;;;4991169;28;20100;-73
2022/01/01 22:55:41;;;;;;;9.10;5.75;;;12.00;99.90;;;;;;4990893;28;20054;-73
2022/01/01 22:58:07;;;;;;;9.88;5.80;;;12.00;99.90;;;;;;4990613;28;20124;-73
2022/01/01 23:00:33;;;;;;;8.60;6.20;;;12.00;99.90;;;;;;4991486;28;20118;-73
2022/01/01 23:03:04;;;;;;;9.23;5.80;;;11.90;99.90;;;;;;4990407;28;20053;-73
2022/01/01 23:05:31;;;;;;;7.68;5.75;;;12.00;99.90;;;;;;4990554;28;20164;-73
2022/01/01 23:07:59;;;;;;;10.38;5.93;;;12.00;99.90;;;;;;4987903;28;20161;-73
2022/01/01 23:10:25;;;;;;;9.75;5.75;;;11.90;99.90;;;;;;4990208;28;20062;-73
2022/01/01 23:12:51;;;;;;;11.25;6.10;;;11.90;99.90;;;;;;4989574;28;20118;-73
2022/01/01 23:15:17;;;;;;;9.18;5.72;;;12.00;99.90;;;;;;5006882;28;20042;-73
2022/01/01 23:18:06;;;;;;;10.15;6.30;;;12.00;99.90;;;;;;4991764;28;20041;-73
2022/01/01 23:20:33;;;;;;;9.18;6.20;;;12.00;99.90;;;;;;4989364;28;20101;-73
2022/01/01 23:23:05;;;;;;;8.32;5.80;;;12.00;99.90;;;;;;4990244;28;20035;-73
2022/01/01 23:25:39;;;;;;;11.18;6.35;;;12.00;99.90;;;;;;5005782;28;20038;-73
2022/01/01 23:28:08;;;;;;;8.88;5.70;;;12.00;99.90;;;;;;4991006;28;20523;-73
2022/01/01 23:30:36;;;;;;;9.80;6.28;;;11.90;99.90;;;;;;4991968;28;20034;-73
2022/01/01 23:33:02;;;;;;;8.30;6.15;;;12.00;99.90;;;;;;4994020;28;20077;-74
2022/01/01 23:35:35;;;;;;;10.13;6.07;;;12.00;99.90;;;;;;4993832;28;20444;-74
2022/01/01 23:38:01;;;;;;;;;;;11.90;99.90;;;;;;4994471;28;20074;-74
2022/01/01 23:40:32;;;;;;;8.52;6.10;;;11.90;99.90;;;;;;4993014;28;19918;-74
2022/01/01 23:42:58;;;;;;;11.77;6.45;;;11.90;99.90;;;;;;4994347;28;20093;-74
2022/01/01 23:45:25;;;;;;;9.63;6.63;;;11.80;99.90;;;;;;4994946;28;20066;-74
2022/01/01 23:47:54;;;;;;;9.20;6.70;;;11.70;99.90;;;;;;4993631;28;20034;-74
2022/01/01 23:50:20;;;;;;;14.20;6.80;;;11.70;99.90;;;;;;4994580;28;20085;-74
2022/01/01 23:52:50;;;;;;;11.10;6.68;;;11.70;99.90;;;;;;5010391;28;20046;-73
2022/01/01 23:55:22;;;;;;;10.43;6.47;;;11.70;99.90;;;;;;5009538;28;20053;-73
2022/01/01 23:57:52;;;;;;;11.43;6.88;;;11.70;99.90;;;;;;4994492;28;20121;-73
